Time;durP1;ratioP1;P1;durP2;ratioP2;P2;SDS_P1;SDS_P2;PMS_P1;PMS_P2;Temp;Humidity;BMP_temperature;BMP_pressure;BME280_temperature;BME280_humidity;BME280_pressure;Samples;Min_cycle;Max_cycle;Signal;HPM_P1;HPM_P2
2023/08/13 00:01:28;;;;;;;4.73;3.93;;;;;;;23.44;56.05;99796.16;5074498;28;20362;-71
2023/08/13 00:03:54;;;;;;;2.90;2.80;;;;;;;23.08;57.20;99796.38;5073941;28;20214;-69
2023/08/13 00:06:21;;;;;;;3.37;3.17;;;;;;;23.02;57.58;99800.97;5073141;28;20268;-72
2023/08/13 00:08:48;;;;;;;3.90;3.60;;;;;;;23.16;57.21;99796.66;5074546;28;20257;-71
2023/08/13 00:11:14;;;;;;;3.77;3.47;;;;;;;23.23;56.84;99788.31;5074179;28;20200;-71
2023/08/13 00:13:42;;;;;;;3.33;3.13;;;;;;;23.26;56.86;99790.44;5073530;28;20585;-70
2023/08/13 00:16:09;;;;;;;3.67;3.20;;;;;;;23.35;56.66;99789.66;5073933;28;20197;-72
2023/08/13 00:18:37;;;;;;;3.57;3.37;;;;;;;;;;5074185;28;20198;-71
2023/08/13 00:21:03;;;;;;;3.87;3.33;;;;;;;23.45;56.29;99781.53;5073873;28;20194;-70
2023/08/13 00:23:30;;;;;;;3.83;3.53;;;;;;;23.48;56.26;99778.25;5073240;28;20261;-70
2023/08/13 00:25:57;;;;;;;4.10;3.80;;;;;;;23.42;56.40;99787.47;5073749;28;20230;-70
2023/08/13 00:28:27;;;;;;;4.10;3.70;;;;;;;23.45;56.36;99791.53;5074172;28;20225;-70
2023/08/13 00:30:55;;;;;;;3.67;3.20;;;;;;;23.48;56.44;99791.81;5074160;28;20202;-70
2023/08/13 00:33:21;;;;;;;4.03;3.73;;;;;;;23.50;56.20;99786.94;5073675;28;20735;-71
2023/08/13 00:35:51;;;;;;;3.60;3.40;;;;;;;23.56;56.15;99791.25;5073411;28;20195;-71
2023/08/13 00:38:17;;;;;;;3.80;3.50;;;;;;;23.60;56.02;99786.91;5073896;28;20321;-71
2023/08/13 00:40:44;;;;;;;3.80;3.60;;;;;;;23.63;55.82;99786.38;5073523;28;20613;-70
2023/08/13 00:43:11;;;;;;;4.23;3.83;;;;;;;23.66;55.76;99785.00;5072981;28;20736;-72
2023/08/13 00:45:38;;;;;;;3.80;3.50;;;;;;;23.71;55.90;99790.41;5073787;28;20227;-71
2023/08/13 00:48:06;;;;;;;5.20;3.77;;;;;;;23.74;55.80;99782.56;5073804;28;20206;-70
2023/08/13 00:50:34;;;;;;;4.57;3.90;;;;;;;23.81;55.67;99788.50;5073460;28;20199;-71
2023/08/13 00:53:02;;;;;;;4.00;3.70;;;;;;;23.90;55.73;99792.31;5073741;28;20268;-70
2023/08/13 00:55:29;;;;;;;3.63;3.13;;;;;;;23.95;55.59;99784.16;5073223;28;20195;-71
2023/08/13 00:57:56;;;;;;;3.63;3.33;;;;;;;24.07;55.50;99790.13;5073324;28;20256;-71
2023/08/13 01:00:23;;;;;;;3.80;3.57;;;;;;;24.09;55.10;99790.63;5073504;28;20207;-71
2023/08/13 01:02:50;;;;;;;7.07;4.03;;;;;;;24.11;55.15;99788.47;5073645;28;20202;-71
2023/08/13 01:05:17;;;;;;;3.53;3.33;;;;;;;24.15;55.07;99794.16;5072228;28;20655;-72
2023/08/13 01:07:52;;;;;;;3.57;3.20;;;;;;;24.18;55.20;99797.09;5073063;28;20194;-71
2023/08/13 01:10:32;;;;;;;3.53;3.30;;;;;;;24.20;55.09;99792.22;5073258;28;20320;-72
2023/08/13 01:13:05;;;;;;;5.37;4.10;;;;;;;24.15;55.18;99800.41;5073356;28;20199;-71
2023/08/13 01:15:35;;;;;;;4.03;3.73;;;;;;;24.00;55.84;99797.72;5072444;28;20245;-71
2023/08/13 01:18:02;;;;;;;4.63;3.93;;;;;;;23.90;56.01;99791.47;5071905;28;20663;-72
2023/08/13 01:20:32;;;;;;;6.47;3.73;;;;;;;23.92;56.58;99805.59;5073125;28;20203;-73
2023/08/13 01:23:01;;;;;;;3.93;3.63;;;;;;;23.87;55.97;99792.84;5073248;28;20195;-71
2023/08/13 01:25:28;;;;;;;5.13;3.27;;;;;;;23.90;55.97;99803.16;5071889;28;20226;-72
2023/08/13 01:28:02;;;;;;;3.60;3.40;;;;;;;24.00;55.75;99802.31;5073094;28;20199;-72
2023/08/13 01:30:39;;;;;;;4.27;3.37;;;;;;;24.05;55.34;99800.41;5072834;28;20244;-72
2023/08/13 01:33:08;;;;;;;3.67;3.47;;;;;;;24.11;55.36;99810.19;5072636;28;20237;-71
2023/08/13 01:35:36;;;;;;;4.27;3.87;;;;;;;24.19;54.66;99798.75;5072867;28;20195;-73
2023/08/13 01:38:06;;;;;;;3.83;3.53;;;;;;;24.22;55.19;99806.31;5072144;28;20229;-71
2023/08/13 01:40:33;;;;;;;4.20;3.90;;;;;;;24.30;54.71;99808.47;5072699;28;20203;-73
2023/08/13 01:43:00;;;;;;;9.03;3.97;;;;;;;24.21;55.27;99804.72;5072529;28;20202;-71
2023/08/13 01:45:26;;;;;;;5.93;3.60;;;;;;;24.09;55.65;99801.50;5072319;28;20222;-72
2023/08/13 01:47:53;;;;;;;4.23;4.00;;;;;;;23.84;56.10;99798.81;5074233;28;20232;-72
2023/08/13 01:50:21;;;;;;;4.63;4.23;;;;;;;23.72;56.92;99801.00;5092967;28;20646;-72
2023/08/13 01:52:48;;;;;;;4.60;4.23;;;;;;;23.43;57.59;99807.25;5092146;28;20727;-70
2023/08/13 01:55:16;;;;;;;6.33;4.43;;;;;;;23.24;58.51;99798.84;5092761;28;20197;-71
2023/08/13 01:57:42;;;;;;;5.00;4.23;;;;;;;23.06;59.17;99812.91;5092272;28;20872;-71
2023/08/13 02:00:10;;;;;;;4.30;4.00;;;;;;;22.83;60.45;99807.19;5087069;28;20263;-73
2023/08/13 02:02:36;;;;;;;4.53;3.80;;;;;;;22.85;60.46;99815.84;5072199;28;20285;-71
2023/08/13 02:05:03;;;;;;;5.30;4.90;;;;;;;23.01;59.51;99818.34;5072302;28;20287;-70
2023/08/13 02:07:30;;;;;;;4.57;4.13;;;;;;;23.21;59.11;99826.53;5083785;28;20199;-70
2023/08/13 02:09:57;;;;;;;4.70;4.40;;;;;;;23.39;58.58;99817.84;5092169;28;20246;-71
2023/08/13 02:12:25;;;;;;;4.73;4.20;;;;;;;23.53;58.16;99818.91;5090747;28;20198;-71
2023/08/13 02:14:51;;;;;;;4.67;4.13;;;;;;;23.56;57.65;99823.81;5092384;28;20198;-70
2023/08/13 02:17:18;;;;;;;4.33;3.93;;;;;;;23.74;56.92;99830.56;5091916;28;20664;-71
2023/08/13 02:19:45;;;;;;;4.53;4.33;;;;;;;23.79;56.42;99825.97;5091949;28;20266;-71
2023/08/13 02:22:11;;;;;;;8.40;4.00;;;;;;;23.77;56.10;99819.97;5071868;28;20195;-71
2023/08/13 02:24:38;;;;;;;9.53;4.20;;;;;;;23.80;56.34;99829.47;5071660;28;20705;-71
2023/08/13 02:27:05;;;;;;;6.20;4.33;;;;;;;23.72;56.57;99825.41;5071998;28;20275;-71
2023/08/13 02:29:33;;;;;;;4.10;3.80;;;;;;;23.76;56.66;99822.97;5071630;28;20194;-71
2023/08/13 02:32:00;;;;;;;4.20;3.90;;;;;;;23.79;56.41;99825.97;5089372;28;20739;-71
2023/08/13 02:34:27;;;;;;;4.17;3.33;;;;;;;23.81;56.13;99826.50;5091754;28;20250;-72
2023/08/13 02:36:54;;;;;;;4.80;4.10;;;;;;;23.85;55.95;99827.56;5091391;28;20708;-71
2023/08/13 02:39:21;;;;;;;4.80;4.40;;;;;;;23.84;55.78;99825.94;5092246;28;20209;-72
2023/08/13 02:41:48;;;;;;;6.07;4.00;;;;;;;23.82;55.84;99828.13;5091940;28;20357;-72
2023/08/13 02:44:15;;;;;;;4.20;3.83;;;;;;;23.81;56.36;99825.69;5071661;28;20674;-72
2023/08/13 02:46:43;;;;;;;5.50;4.50;;;;;;;23.81;56.23;99831.91;5071197;28;20733;-72
2023/08/13 02:49:10;;;;;;;5.03;4.47;;;;;;;23.77;56.46;99828.13;5071309;28;20284;-72
2023/08/13 02:51:36;;;;;;;6.87;4.20;;;;;;;23.79;55.79;99827.84;5081906;28;20235;-71
2023/08/13 02:54:03;;;;;;;4.97;4.53;;;;;;;23.75;55.74;99832.19;5091678;28;20196;-71
2023/08/13 02:56:30;;;;;;;4.60;4.20;;;;;;;23.75;55.94;99826.78;5091735;28;20193;-71
2023/08/13 02:58:56;;;;;;;3.97;3.50;;;;;;;23.72;56.53;99836.28;5091913;28;20239;-71
2023/08/13 03:01:23;;;;;;;4.60;4.20;;;;;;;23.72;55.30;99817.28;5082124;28;20255;-71
2023/08/13 03:03:52;;;;;;;4.47;4.17;;;;;;;23.84;56.18;99825.94;5071288;28;20198;-71
2023/08/13 03:06:20;;;;;;;3.97;3.77;;;;;;;23.96;55.50;99829.22;5072794;28;20785;-74
2023/08/13 03:08:46;;;;;;;4.73;4.30;;;;;;;23.83;55.10;99829.75;5091425;28;20221;-71
2023/08/13 03:11:13;;;;;;;4.00;3.70;;;;;;;23.68;56.34;99837.91;5091493;28;20247;-71
2023/08/13 03:13:40;;;;;;;4.90;3.73;;;;;;;23.65;56.11;99833.00;5089829;28;20192;-71
2023/08/13 03:16:06;;;;;;;4.03;3.73;;;;;;;23.73;55.58;99831.66;5081189;28;20579;-71
2023/08/13 03:18:33;;;;;;;4.20;4.00;;;;;;;23.74;56.03;99833.28;5071182;28;20203;-70
2023/08/13 03:21:01;;;;;;;4.47;3.97;;;;;;;23.78;55.26;99837.09;5071287;28;20260;-71
2023/08/13 03:23:29;;;;;;;4.33;3.93;;;;;;;23.84;55.23;99831.38;5071344;28;20191;-70
2023/08/13 03:25:56;;;;;;;5.60;3.77;;;;;;;23.94;55.28;99834.09;5078038;28;20267;-71
2023/08/13 03:28:22;;;;;;;6.20;4.00;;;;;;;24.02;55.08;99832.75;5091520;28;20197;-70
2023/08/13 03:30:49;;;;;;;6.60;4.10;;;;;;;24.04;54.76;99830.53;5091188;28;20195;-71
2023/08/13 03:33:16;;;;;;;4.10;3.73;;;;;;;24.08;54.84;99832.44;5091320;28;20252;-72
2023/08/13 03:35:42;;;;;;;5.80;4.40;;;;;;;24.09;54.55;99834.06;5090949;28;20199;-71
2023/08/13 03:38:10;;;;;;;4.17;3.87;;;;;;;24.14;54.34;99836.75;5080192;28;20730;-72
2023/08/13 03:40:38;;;;;;;5.83;3.93;;;;;;;24.16;54.61;99833.78;5071295;28;20227;-72
2023/08/13 03:43:05;;;;;;;4.73;4.27;;;;;;;24.09;54.88;99835.97;5075493;28;20719;-71
2023/08/13 03:45:31;;;;;;;8.20;3.77;;;;;;;24.10;54.73;99830.25;5074504;28;20265;-71
2023/08/13 03:47:58;;;;;;;3.97;3.53;;;;;;;24.06;55.13;99829.19;5074384;28;20257;-72
2023/08/13 03:50:25;;;;;;;9.00;4.47;;;;;;;24.12;55.09;99828.09;5074809;28;20252;-70
2023/08/13 03:52:51;;;;;;;4.40;4.00;;;;;;;24.21;54.98;99833.75;5082373;28;20194;-70
2023/08/13 03:55:19;;;;;;;7.27;3.90;;;;;;;24.26;54.59;99826.41;5095252;28;20198;-70
2023/08/13 03:57:46;;;;;;;4.00;3.70;;;;;;;24.54;53.98;99833.91;5094623;28;20331;-71
2023/08/13 04:00:14;;;;;;;4.30;3.90;;;;;;;24.95;52.65;99837.28;5094869;28;20259;-72
2023/08/13 04:02:40;;;;;;;9.20;3.87;;;;;;;25.44;51.34;99845.38;5094266;28;20667;-72
2023/08/13 04:05:08;;;;;;;6.10;4.07;;;;;;;25.85;49.64;99858.34;5085497;28;20566;-72
2023/08/13 04:07:34;;;;;;;4.53;3.80;;;;;;;26.32;48.25;99854.88;5086467;28;20629;-72
2023/08/13 04:10:01;;;;;;;5.27;3.57;;;;;;;26.82;46.60;99851.59;5094415;28;20191;-73
2023/08/13 04:12:29;;;;;;;3.73;3.37;;;;;;;27.30;44.97;99853.91;5094625;28;20196;-73
2023/08/13 04:14:56;;;;;;;4.43;3.80;;;;;;;27.75;43.91;99858.63;5094356;28;20200;-73
2023/08/13 04:17:22;;;;;;;4.00;3.70;;;;;;;28.13;42.38;99851.16;5092692;28;20191;-74
2023/08/13 04:19:49;;;;;;;5.33;3.80;;;;;;;28.55;41.63;99865.34;5094509;28;20191;-73
2023/08/13 04:22:16;;;;;;;3.30;3.00;;;;;;;28.99;40.59;99853.75;5094548;28;20191;-73
2023/08/13 04:24:42;;;;;;;6.87;3.90;;;;;;;29.35;39.37;99862.78;5089286;28;20192;-73
2023/08/13 04:27:09;;;;;;;4.13;3.73;;;;;;;29.57;38.08;99857.34;5074010;28;20345;-73
2023/08/13 04:29:37;;;;;;;7.83;3.80;;;;;;;29.74;38.34;99870.34;5074017;28;20191;-73
2023/08/13 04:32:04;;;;;;;6.00;3.90;;;;;;;29.85;38.30;99866.22;5074129;28;20255;-73
2023/08/13 04:34:31;;;;;;;4.80;3.53;;;;;;;29.95;38.07;99866.78;5074749;28;20253;-73
2023/08/13 04:36:58;;;;;;;5.73;4.23;;;;;;;30.28;37.25;99870.84;5094596;28;20227;-73
2023/08/13 04:39:25;;;;;;;3.70;3.40;;;;;;;30.35;36.75;99873.94;5093323;28;20245;-73
2023/08/13 04:41:51;;;;;;;4.33;3.20;;;;;;;30.60;35.92;99873.22;5093507;28;20195;-73
2023/08/13 04:44:18;;;;;;;3.97;3.67;;;;;;;31.11;35.22;99878.84;5093738;28;20221;-73
2023/08/13 04:46:46;;;;;;;10.23;4.03;;;;;;;31.65;34.39;99869.97;5087195;28;20273;-72
2023/08/13 04:49:13;;;;;;;6.00;3.67;;;;;;;31.84;33.61;99875.16;5073272;28;20622;-73
2023/08/13 04:51:39;;;;;;;3.77;3.47;;;;;;;31.92;33.65;99872.38;5072685;28;20664;-72
2023/08/13 04:54:07;;;;;;;3.63;3.43;;;;;;;32.09;33.41;99882.56;5073034;28;20659;-73
2023/08/13 04:56:33;;;;;;;3.30;3.10;;;;;;;32.08;33.27;99881.72;5090287;28;20621;-73
2023/08/13 04:59:00;;;;;;;4.23;3.57;;;;;;;32.18;32.90;99875.84;5093602;28;20248;-72
2023/08/13 05:01:27;;;;;;;4.13;3.80;;;;;;;31.79;33.87;99884.38;5093424;28;20195;-73
2023/08/13 05:03:55;;;;;;;5.57;5.00;;;;;;;31.72;33.86;99877.75;5093453;28;20203;-73
2023/08/13 05:06:22;;;;;;;4.57;3.57;;;;;;;31.81;34.00;99882.09;5080477;28;20224;-72
2023/08/13 05:08:48;;;;;;;3.60;3.30;;;;;;;31.94;33.42;99881.13;5093538;28;20716;-72
2023/08/13 05:11:15;;;;;;;3.63;3.40;;;;;;;31.96;33.69;99878.84;5093448;28;20264;-73
2023/08/13 05:13:42;;;;;;;4.70;4.20;;;;;;;31.86;33.61;99889.38;5093568;28;20222;-73
2023/08/13 05:16:09;;;;;;;5.57;3.70;;;;;;;32.04;33.80;99885.44;5093189;28;20245;-73
2023/08/13 05:18:35;;;;;;;3.30;3.10;;;;;;;32.25;33.04;99898.16;5091482;28;20252;-72
2023/08/13 05:21:03;;;;;;;3.77;3.47;;;;;;;32.54;32.66;99898.25;5092845;28;20245;-73
2023/08/13 05:23:30;;;;;;;5.43;3.50;;;;;;;32.81;32.17;99889.56;5092894;28;20217;-72
2023/08/13 05:25:57;;;;;;;6.70;3.27;;;;;;;33.01;31.68;99899.81;5083743;28;20655;-72
2023/08/13 05:28:23;;;;;;;3.60;3.40;;;;;;;33.05;32.18;99903.50;5072533;28;20563;-72
2023/08/13 05:30:50;;;;;;;4.73;3.43;;;;;;;33.11;31.46;99893.91;5072917;28;20257;-72
2023/08/13 05:33:17;;;;;;;3.50;3.30;;;;;;;33.25;31.11;99899.97;5072714;28;20188;-73
2023/08/13 05:35:43;;;;;;;3.57;3.27;;;;;;;33.67;30.79;99897.22;5077003;28;20195;-72
2023/08/13 05:38:11;;;;;;;3.37;3.17;;;;;;;33.32;31.35;99893.13;5092833;28;20647;-74
2023/08/13 05:40:38;;;;;;;4.20;3.20;;;;;;;33.50;30.82;99889.09;5092860;28;20245;-72
2023/08/13 05:43:05;;;;;;;3.20;3.00;;;;;;;33.61;30.50;99893.03;5092265;28;20199;-73
2023/08/13 05:45:31;;;;;;;3.45;2.80;;;;;;;33.63;30.55;99888.00;5092703;28;20219;-73
2023/08/13 05:47:58;;;;;;;8.10;3.78;;;;;;;33.57;30.59;99892.09;5086536;28;20671;-73
2023/08/13 05:50:25;;;;;;;3.50;3.30;;;;;;;33.60;30.88;99888.69;5072366;28;20261;-73
2023/08/13 05:52:52;;;;;;;4.27;3.00;;;;;;;33.59;30.75;99892.59;5072080;28;20245;-73
2023/08/13 05:55:20;;;;;;;4.03;3.67;;;;;;;33.84;30.59;99899.84;5071824;28;20781;-73
2023/08/13 05:57:46;;;;;;;3.13;3.03;;;;;;;33.64;30.37;99897.88;5072480;28;20188;-73
2023/08/13 06:00:14;;;;;;;6.20;3.50;;;;;;;33.33;31.07;99894.75;5077094;28;20244;-73
2023/08/13 06:02:40;;;;;;;3.60;3.40;;;;;;;33.44;30.76;99893.19;5090505;28;20195;-73
2023/08/13 06:05:08;;;;;;;3.40;3.20;;;;;;;33.60;30.56;99888.69;5089575;28;20191;-73
2023/08/13 06:07:35;;;;;;;3.95;3.65;;;;;;;33.79;30.28;99888.97;5078984;28;20253;-73
2023/08/13 06:10:03;;;;;;;3.90;3.40;;;;;;;33.72;30.19;99892.28;5071212;28;20246;-73
2023/08/13 06:12:32;;;;;;;4.60;3.10;;;;;;;33.56;30.33;99890.50;5076118;28;20183;-73
2023/08/13 06:14:59;;;;;;;5.07;3.07;;;;;;;33.22;30.69;99892.38;5091387;28;20191;-73
2023/08/13 06:17:26;;;;;;;3.37;3.17;;;;;;;32.25;32.03;99892.66;5091643;28;20294;-73
2023/08/13 06:19:53;;;;;;;6.57;3.63;;;;;;;31.38;33.42;99888.75;5092043;28;20253;-74
2023/08/13 06:22:19;;;;;;;5.70;3.60;;;;;;;30.95;34.70;99893.38;5091800;28;20192;-73
2023/08/13 06:24:47;;;;;;;3.47;3.27;;;;;;;30.76;34.95;99888.16;5084762;28;20196;-72
2023/08/13 06:27:14;;;;;;;4.20;3.60;;;;;;;30.75;35.50;99892.03;5071917;28;20215;-73
2023/08/13 06:29:42;;;;;;;7.27;3.80;;;;;;;30.68;34.69;99886.16;5071645;28;20228;-73
2023/08/13 06:32:08;;;;;;;3.83;3.17;;;;;;;30.55;35.68;99891.75;5071819;28;20249;-73
2023/08/13 06:34:35;;;;;;;4.27;3.60;;;;;;;30.67;34.40;99890.03;5071429;28;20571;-73
2023/08/13 06:37:03;;;;;;;3.77;3.47;;;;;;;30.74;35.07;99886.88;5081936;28;20219;-74
2023/08/13 06:39:30;;;;;;;3.37;3.07;;;;;;;30.97;34.58;99891.91;5091955;28;20203;-73
2023/08/13 06:41:57;;;;;;;5.37;3.37;;;;;;;31.34;34.47;99896.81;5092107;28;20187;-72
2023/08/13 06:44:24;;;;;;;3.27;2.97;;;;;;;31.47;33.52;99898.59;5088694;28;20187;-73
2023/08/13 06:46:52;;;;;;;3.50;3.27;;;;;;;31.51;33.27;99896.00;5071772;28;20284;-73
2023/08/13 06:49:18;;;;;;;3.33;3.10;;;;;;;31.32;33.23;99896.31;5071619;28;20278;-72
2023/08/13 06:51:45;;;;;;;3.40;3.20;;;;;;;30.66;34.38;99887.63;5071750;28;20195;-73
2023/08/13 06:54:12;;;;;;;3.23;3.03;;;;;;;30.54;35.00;99879.97;5071063;28;20196;-72
2023/08/13 06:56:38;;;;;;;3.60;3.40;;;;;;;30.44;35.29;99885.75;5090456;28;20568;-73
2023/08/13 06:59:05;;;;;;;3.27;3.07;;;;;;;30.49;35.59;99893.84;5091574;28;20284;-72
2023/08/13 07:01:33;;;;;;;3.20;2.77;;;;;;;30.52;35.20;99882.22;5091656;28;20245;-73
2023/08/13 07:04:01;;;;;;;2.77;2.57;;;;;;;30.76;35.20;99879.94;5080486;28;20262;-71
2023/08/13 07:06:28;;;;;;;5.07;3.03;;;;;;;30.96;34.57;99887.56;5073763;28;20261;-72
2023/08/13 07:08:54;;;;;;;3.40;3.10;;;;;;;31.00;34.45;99884.97;5091745;28;20192;-72
2023/08/13 07:11:21;;;;;;;4.13;2.90;;;;;;;31.28;34.14;99883.59;5091408;28;20190;-72
2023/08/13 07:13:50;;;;;;;3.50;3.00;;;;;;;31.40;33.57;99881.78;5090510;28;20191;-72
2023/08/13 07:16:16;;;;;;;3.03;2.83;;;;;;;31.69;33.18;99884.69;5094817;28;20199;-72
2023/08/13 07:18:43;;;;;;;3.43;3.13;;;;;;;31.78;33.19;99881.97;5095403;28;20199;-73
2023/08/13 07:21:12;;;;;;;3.83;3.27;;;;;;;32.02;32.35;99890.47;5094883;28;20607;-72
2023/08/13 07:23:39;;;;;;;3.50;3.20;;;;;;;32.20;32.37;99887.34;5095070;28;20235;-73
2023/08/13 07:26:06;;;;;;;3.40;3.10;;;;;;;32.57;31.63;99883.84;5083671;28;20215;-73
2023/08/13 07:28:34;;;;;;;3.40;3.10;;;;;;;32.72;31.25;99886.03;5074782;28;20275;-73
2023/08/13 07:31:04;;;;;;;3.73;3.17;;;;;;;32.83;31.01;99880.97;5074869;28;20196;-72
2023/08/13 07:33:31;;;;;;;3.50;3.20;;;;;;;33.09;30.15;99885.19;5075574;28;20234;-73
2023/08/13 07:35:59;;;;;;;3.73;2.90;;;;;;;32.62;30.31;99875.38;5074363;28;20223;-73
2023/08/13 07:38:28;;;;;;;3.20;3.00;;;;;;;32.87;30.25;99877.22;5075045;28;20234;-72
2023/08/13 07:40:55;;;;;;;3.57;3.37;;;;;;;33.20;29.76;99877.31;5074524;28;20282;-72
2023/08/13 07:43:22;;;;;;;4.47;3.05;;;;;;;33.67;29.19;99877.94;5074471;28;20231;-73
2023/08/13 07:45:49;;;;;;;3.63;3.08;;;;;;;33.91;28.63;99878.00;5093496;28;20243;-72
2023/08/13 07:48:16;;;;;;;3.20;2.75;;;;;;;34.33;28.00;99879.53;5094949;28;20206;-74
2023/08/13 07:50:43;;;;;;;2.65;2.55;;;;;;;34.58;27.80;99878.38;5094840;28;20246;-73
2023/08/13 07:53:09;;;;;;;3.70;3.28;;;;;;;34.34;27.76;99872.84;5094567;28;20191;-74
2023/08/13 07:55:37;;;;;;;3.38;3.15;;;;;;;34.30;27.26;99874.66;5094411;28;20196;-73
2023/08/13 07:58:04;;;;;;;5.78;2.60;;;;;;;34.47;26.01;99871.72;5074733;28;20253;-73
2023/08/13 08:00:31;;;;;;;2.85;2.67;;;;;;;34.10;26.50;99870.03;5074580;28;20253;-73
2023/08/13 08:02:58;;;;;;;3.63;2.67;;;;;;;34.24;26.13;99873.25;5074536;28;20257;-72
2023/08/13 08:05:25;;;;;;;3.80;3.08;;;;;;;34.50;25.97;99871.03;5074192;28;20249;-73
2023/08/13 08:07:52;;;;;;;2.80;2.70;;;;;;;34.77;25.27;99862.03;5086515;28;20255;-72
2023/08/13 08:10:19;;;;;;;2.80;2.60;;;;;;;34.87;25.33;99839.50;5094156;28;20193;-73
2023/08/13 08:12:47;;;;;;;2.55;2.35;;;;;;;35.16;25.02;99866.84;5094929;28;20192;-71
2023/08/13 08:15:14;;;;;;;2.55;2.45;;;;;;;35.30;24.60;99861.75;5090012;28;20200;-72
2023/08/13 08:17:41;;;;;;;2.38;2.28;;;;;;;35.50;23.73;99856.03;5073979;28;20199;-72
2023/08/13 08:20:08;;;;;;;2.58;2.35;;;;;;;35.50;23.14;99846.94;5074054;28;20195;-74
2023/08/13 08:22:35;;;;;;;3.85;2.55;;;;;;;35.53;23.02;99860.88;5073821;28;20234;-72
2023/08/13 08:25:02;;;;;;;2.50;2.40;;;;;;;35.27;23.23;99859.69;5073919;28;20265;-72
2023/08/13 08:27:29;;;;;;;2.70;2.50;;;;;;;34.97;24.07;99850.06;5089434;28;20225;-72
2023/08/13 08:29:57;;;;;;;3.05;2.75;;;;;;;34.82;24.59;99842.50;5094073;28;20195;-72
2023/08/13 08:32:23;;;;;;;2.78;2.58;;;;;;;34.61;24.31;99841.78;5093776;28;20195;-72
2023/08/13 08:34:50;;;;;;;2.95;2.63;;;;;;;34.91;24.19;99843.19;5084464;28;20200;-72
2023/08/13 08:37:17;;;;;;;2.53;2.40;;;;;;;35.04;24.05;99840.06;5073439;28;20227;-72
2023/08/13 08:39:43;;;;;;;2.83;2.58;;;;;;;34.40;24.31;99847.44;5073309;28;20199;-72
2023/08/13 08:42:11;;;;;;;3.45;2.70;;;;;;;34.41;23.95;99848.25;5073024;28;20195;-72
2023/08/13 08:44:41;;;;;;;4.07;2.58;;;;;;;34.43;24.02;99851.47;5079727;28;20211;-72
2023/08/13 08:47:10;;;;;;;5.80;2.85;;;;;;;34.55;24.25;99843.19;5093756;28;20306;-73
2023/08/13 08:49:37;;;;;;;3.30;3.00;;;;;;;34.82;23.91;99832.25;5094097;28;20266;-71
2023/08/13 08:52:06;;;;;;;2.80;2.67;;;;;;;34.73;24.14;99833.50;5093466;28;20611;-73
2023/08/13 08:54:34;;;;;;;2.50;2.30;;;;;;;34.83;24.03;99838.59;5093788;28;20279;-71
2023/08/13 08:57:01;;;;;;;2.63;2.50;;;;;;;34.08;24.23;99840.03;5081288;28;20204;-72
2023/08/13 08:59:27;;;;;;;3.47;2.90;;;;;;;34.44;24.28;99842.03;5073167;28;20196;-72
2023/08/13 09:01:54;;;;;;;3.10;2.80;;;;;;;33.51;25.29;99830.88;5073285;28;20191;-71
2023/08/13 09:04:23;;;;;;;2.50;2.30;;;;;;;33.68;24.94;99824.41;5075377;28;20199;-74
2023/08/13 09:06:54;;;;;;;3.08;2.88;;;;;;;33.59;24.96;99820.94;5087585;28;20270;-72
2023/08/13 09:09:22;;;;;;;2.72;2.50;;;;;;;32.92;25.95;99819.19;5072907;28;20690;-72
2023/08/13 09:11:49;;;;;;;2.63;2.40;;;;;;;33.11;25.66;99829.75;5072739;28;20191;-71
2023/08/13 09:14:16;;;;;;;4.88;2.33;;;;;;;33.25;25.25;99819.28;5074023;28;20195;-72
2023/08/13 09:16:45;;;;;;;2.70;2.50;;;;;;;33.06;25.61;99797.72;5093275;28;20191;-72
2023/08/13 09:19:12;;;;;;;2.92;2.83;;;;;;;32.73;26.27;99815.25;5093048;28;20726;-73
2023/08/13 09:21:41;;;;;;;2.70;2.38;;;;;;;32.47;26.86;99809.91;5093184;28;20252;-72
2023/08/13 09:24:09;;;;;;;4.03;2.70;;;;;;;32.52;27.16;99812.50;5092889;28;20631;-72
2023/08/13 09:26:37;;;;;;;3.10;2.90;;;;;;;32.47;27.74;99806.38;5087819;28;20254;-73
2023/08/13 09:29:07;;;;;;;4.27;2.83;;;;;;;32.40;27.44;99806.91;5072838;28;20246;-71
2023/08/13 09:31:35;;;;;;;4.07;3.70;;;;;;;32.26;27.42;99806.28;5073141;28;20215;-71
2023/08/13 09:34:02;;;;;;;2.90;2.60;;;;;;;31.77;28.33;99809.69;5072716;28;20188;-72
2023/08/13 09:36:29;;;;;;;3.10;2.80;;;;;;;31.72;28.23;99818.09;5087957;28;20238;-70
2023/08/13 09:38:57;;;;;;;3.20;2.90;;;;;;;31.37;30.85;99813.81;5091752;28;20701;-71
2023/08/13 09:41:27;;;;;;;4.57;3.57;;;;;;;31.02;33.18;99809.41;5092377;28;20626;-72
2023/08/13 09:43:56;;;;;;;3.27;2.97;;;;;;;30.93;32.80;99800.38;5093202;28;20302;-73
2023/08/13 09:46:27;;;;;;;4.90;2.77;;;;;;;31.21;31.05;99815.41;5076161;28;20275;-73
2023/08/13 09:48:55;;;;;;;5.03;3.13;;;;;;;31.02;32.69;99809.41;5072947;28;20241;-72
2023/08/13 09:51:26;;;;;;;4.07;3.60;;;;;;;30.62;33.30;99805.13;5072260;28;20196;-73
2023/08/13 09:54:00;;;;;;;2.80;2.60;;;;;;;30.74;33.11;99801.81;5072461;28;20188;-72
2023/08/13 09:56:31;;;;;;;3.67;3.30;;;;;;;30.74;32.90;99799.84;5071909;28;20237;-73
2023/08/13 09:58:58;;;;;;;3.20;2.90;;;;;;;30.67;32.03;99802.25;5089598;28;20195;-73
2023/08/13 10:01:25;;;;;;;3.47;3.20;;;;;;;30.73;32.22;99806.47;5092450;28;20256;-73
2023/08/13 10:03:53;;;;;;;4.77;2.87;;;;;;;30.79;32.48;99804.41;5092478;28;20198;-73
2023/08/13 10:06:21;;;;;;;3.23;3.03;;;;;;;30.76;33.91;99797.63;5090438;28;20191;-73
2023/08/13 10:08:49;;;;;;;5.23;2.93;;;;;;;30.76;33.23;99796.81;5071984;28;20227;-73
2023/08/13 10:11:18;;;;;;;3.40;3.20;;;;;;;30.83;32.85;99800.66;5090163;28;20191;-72
2023/08/13 10:13:46;;;;;;;4.57;3.37;;;;;;;30.81;32.92;99786.47;5092349;28;20278;-72
2023/08/13 10:16:14;;;;;;;5.10;3.40;;;;;;;30.81;32.38;99793.91;5092135;28;20195;-73
2023/08/13 10:18:45;;;;;;;4.20;3.80;;;;;;;30.76;32.51;99789.38;5091978;28;20197;-72
2023/08/13 10:21:13;;;;;;;3.47;3.33;;;;;;;30.74;32.26;99791.63;5088959;28;20248;-75
2023/08/13 10:23:40;;;;;;;3.97;2.90;;;;;;;30.72;32.56;99788.41;5071877;28;20196;-72
2023/08/13 10:26:09;;;;;;;5.77;3.27;;;;;;;30.58;31.93;99781.44;5071382;28;20196;-72
2023/08/13 10:28:37;;;;;;;4.27;3.60;;;;;;;30.08;33.39;99789.13;5071533;28;20219;-73
2023/08/13 10:31:48;;;;;;;6.13;3.80;;;;;;;30.38;33.34;99782.81;5071306;28;20188;-73
2023/08/13 10:34:16;;;;;;;4.13;3.80;;;;;;;30.52;33.34;99778.03;5080490;28;20270;-73
2023/08/13 10:36:51;;;;;;;3.50;3.10;;;;;;;30.64;33.71;99775.47;5091327;28;20188;-72
2023/08/13 10:39:31;;;;;;;3.50;3.20;;;;;;;30.70;32.80;99774.19;5092074;28;20214;-73
2023/08/13 10:41:58;;;;;;;3.97;3.57;;;;;;;30.66;32.51;99772.41;5086509;28;20359;-73
2023/08/13 10:44:30;;;;;;;2.90;2.80;;;;;;;30.36;33.02;99774.09;5071607;28;20196;-72
2023/08/13 10:46:57;;;;;;;3.50;3.20;;;;;;;30.42;33.11;99756.38;5071073;28;20228;-73
2023/08/13 10:49:26;;;;;;;4.60;3.43;;;;;;;30.50;33.21;99755.56;5071316;28;20578;-72
2023/08/13 10:51:53;;;;;;;3.10;2.90;;;;;;;30.36;33.21;99751.34;5073846;28;20657;-72
2023/08/13 10:54:20;;;;;;;7.00;3.43;;;;;;;30.22;33.52;99759.72;5091717;28;20246;-72
2023/08/13 10:56:54;;;;;;;4.47;3.30;;;;;;;30.27;33.89;99748.63;5091892;28;20574;-72
2023/08/13 10:59:21;;;;;;;4.67;3.10;;;;;;;30.39;34.23;99757.03;5091465;28;20279;-72
2023/08/13 11:02:14;;;;;;;3.40;3.20;;;;;;;30.70;34.23;99740.50;5091397;28;20199;-71
2023/08/13 11:04:43;;;;;;;3.47;3.23;;;;;;;31.10;31.46;99748.22;5079727;28;20192;-73
2023/08/13 11:07:10;;;;;;;3.17;2.97;;;;;;;31.17;30.14;99748.53;5079613;28;20298;-72
2023/08/13 11:09:37;;;;;;;3.00;2.80;;;;;;;31.21;31.48;99735.78;5090472;28;20742;-74
2023/08/13 11:12:06;;;;;;;2.60;2.50;;;;;;;31.50;30.57;99738.66;5089552;28;20227;-73
2023/08/13 11:14:33;;;;;;;2.93;2.80;;;;;;;31.50;30.49;99733.16;5090726;28;20655;-73
2023/08/13 11:16:59;;;;;;;3.00;2.80;;;;;;;31.38;30.36;99724.78;5091102;28;20223;-73
2023/08/13 11:19:27;;;;;;;2.90;2.70;;;;;;;31.30;30.37;99717.38;5090558;28;20249;-72
2023/08/13 11:21:55;;;;;;;3.17;2.97;;;;;;;31.21;29.71;99713.00;5089602;28;20191;-72
2023/08/13 11:24:22;;;;;;;3.00;2.80;;;;;;;31.12;30.78;99714.97;5071137;28;20227;-72
2023/08/13 11:26:49;;;;;;;9.50;3.20;;;;;;;31.26;30.29;99710.91;5070753;28;20232;-72
2023/08/13 11:29:20;;;;;;;3.63;2.97;;;;;;;31.47;30.08;99700.84;5070805;28;20288;-73
2023/08/13 11:31:47;;;;;;;3.50;2.70;;;;;;;31.69;29.43;99703.34;5071163;28;20639;-73
2023/08/13 11:34:15;;;;;;;3.03;2.83;;;;;;;31.90;28.92;99698.78;5070492;28;20600;-75
2023/08/13 11:36:44;;;;;;;2.90;2.63;;;;;;;31.98;28.43;99695.19;5090909;28;20242;-73